createdAt,value
2019-02-11T00:01:41.643Z,0.23
2019-02-11T00:04:22.214Z,0.20
2019-02-11T00:07:02.643Z,0.20
2019-02-11T00:09:43.563Z,0.20
2019-02-11T00:12:24.319Z,0.28
2019-02-11T00:15:05.404Z,0.20
2019-02-11T00:17:45.843Z,0.30
2019-02-11T00:20:26.377Z,0.40
2019-02-11T00:23:07.018Z,0.40
2019-02-11T00:25:47.646Z,0.20
2019-02-11T00:28:28.378Z,0.40
2019-02-11T00:31:09.221Z,0.53
2019-02-11T00:33:50.139Z,0.40
2019-02-11T00:36:30.627Z,0.45
2019-02-11T00:39:11.115Z,0.37
2019-02-11T00:41:51.827Z,0.30
2019-02-11T00:44:32.434Z,1.02
2019-02-11T00:47:13.239Z,0.45
2019-02-11T00:52:47.055Z,0.30
2019-02-11T01:00:56.127Z,0.62
2019-02-11T01:03:36.486Z,0.40
2019-02-11T01:06:17.026Z,0.53
2019-02-11T01:08:57.347Z,0.40
2019-02-11T01:11:38.151Z,0.45
2019-02-11T01:14:18.920Z,0.50
2019-02-11T01:16:59.826Z,0.40
2019-02-11T01:19:40.959Z,0.50
2019-02-11T01:22:21.446Z,0.30
2019-02-11T01:25:02.804Z,0.50
2019-02-11T01:27:43.407Z,0.53
2019-02-11T01:30:24.222Z,0.50
2019-02-11T01:33:05.667Z,0.50
2019-02-11T01:35:46.110Z,0.50
2019-02-11T01:38:27.092Z,0.50
2019-02-11T01:41:07.562Z,0.40
2019-02-11T01:43:47.838Z,0.40
2019-02-11T01:46:28.327Z,0.50
2019-02-11T01:49:09.163Z,0.50
2019-02-11T01:51:49.722Z,0.40
2019-02-11T01:54:30.046Z,0.30
2019-02-11T01:57:10.599Z,0.50
2019-02-11T01:59:51.426Z,0.50
2019-02-11T02:02:32.044Z,0.60
2019-02-11T02:05:12.338Z,0.40
2019-02-11T02:07:53.015Z,0.30
2019-02-11T02:10:33.406Z,0.40
2019-02-11T02:13:14.126Z,0.33
2019-02-11T02:15:54.659Z,0.40
2019-02-11T02:18:34.944Z,0.30
2019-02-11T02:21:15.691Z,0.30
2019-02-11T02:23:56.466Z,0.30
2019-02-11T02:26:37.610Z,0.40
2019-02-11T02:29:18.030Z,0.30
2019-02-11T02:31:58.510Z,0.20
2019-02-11T02:34:39.177Z,0.28
2019-02-11T02:37:19.930Z,0.20
2019-02-11T02:40:00.893Z,0.23
2019-02-11T02:42:40.007Z,0.20
2019-02-11T02:45:27.856Z,0.20
2019-02-11T02:48:15.934Z,0.20
2019-02-11T02:51:03.790Z,0.30
2019-02-11T02:53:51.880Z,0.30
2019-02-11T02:56:39.967Z,0.30
2019-02-11T02:59:27.813Z,0.30
2019-02-11T03:02:08.169Z,0.30
2019-02-11T03:04:48.870Z,0.20
2019-02-11T03:07:29.735Z,0.30
2019-02-11T03:10:10.626Z,0.40
2019-02-11T03:12:51.248Z,0.40
2019-02-11T03:15:31.832Z,0.40
2019-02-11T03:18:12.850Z,0.30
2019-02-11T03:20:54.018Z,0.30
2019-02-11T03:23:35.338Z,0.40
2019-02-11T03:26:16.039Z,0.40
2019-02-11T03:28:57.383Z,0.28
2019-02-11T03:31:38.452Z,0.33
2019-02-11T03:34:20.138Z,0.30
2019-02-11T03:37:01.355Z,0.40
2019-02-11T03:39:42.356Z,0.30
2019-02-11T03:42:23.356Z,0.23
2019-02-11T03:45:03.847Z,0.20
2019-02-11T03:47:44.591Z,0.20
2019-02-11T03:50:25.638Z,0.10
2019-02-11T03:53:06.226Z,0.10
2019-02-11T03:55:46.695Z,0.10
2019-02-11T03:58:27.374Z,0.00
2019-02-11T04:01:07.715Z,0.10
2019-02-11T04:03:48.931Z,0.00
2019-02-11T04:06:30.210Z,0.10
2019-02-11T04:09:10.476Z,0.08
2019-02-11T04:11:51.654Z,0.10
2019-02-11T04:14:32.783Z,0.47
2019-02-11T04:17:16.547Z,0.88
2019-02-11T04:22:46.612Z,0.20
2019-02-11T04:28:09.095Z,0.42
2019-02-11T04:30:49.679Z,0.30
2019-02-11T04:33:30.230Z,0.30
2019-02-11T04:36:10.913Z,0.35
2019-02-11T04:44:21.184Z,0.30
2019-02-11T04:47:01.544Z,0.30
2019-02-11T04:52:31.873Z,0.50
2019-02-11T05:00:48.432Z,0.40
2019-02-11T05:03:29.165Z,0.20
2019-02-11T05:06:10.420Z,0.33
2019-02-11T05:08:38.971Z,0.20
2019-02-11T05:11:07.518Z,0.47
2019-02-11T05:13:36.413Z,0.70
2019-02-11T05:16:05.003Z,0.35
2019-02-11T05:18:33.586Z,0.40
2019-02-11T05:21:02.400Z,0.47
2019-02-11T05:23:31.248Z,0.68
2019-02-11T05:25:59.842Z,0.30
2019-02-11T05:28:28.436Z,0.30
2019-02-11T05:30:57.022Z,0.40
2019-02-11T05:33:25.908Z,0.60
2019-02-11T05:35:54.883Z,0.50
2019-02-11T05:38:23.498Z,0.80
2019-02-11T05:40:52.066Z,0.80
2019-02-11T05:43:20.662Z,0.85
2019-02-11T05:45:49.559Z,0.60
2019-02-11T05:48:18.135Z,0.60
2019-02-11T05:50:47.351Z,0.90
2019-02-11T05:53:16.520Z,0.65
2019-02-11T05:55:45.220Z,0.70
2019-02-11T05:58:13.906Z,0.60
2019-02-11T06:00:42.802Z,0.88
2019-02-11T06:03:11.391Z,0.78
2019-02-11T06:05:39.947Z,0.82
2019-02-11T06:08:08.818Z,0.85
2019-02-11T06:10:37.423Z,1.00
2019-02-11T06:13:06.243Z,0.90
2019-02-11T06:15:35.031Z,0.93
2019-02-11T06:18:03.590Z,1.57
2019-02-11T06:20:32.166Z,1.07
2019-02-11T06:23:01.096Z,1.27
2019-02-11T06:25:29.695Z,1.27
2019-02-11T06:27:58.671Z,1.05
2019-02-11T06:30:27.762Z,1.85
2019-02-11T06:32:56.674Z,1.62
2019-02-11T06:35:25.318Z,1.40
2019-02-11T06:37:53.918Z,1.82
2019-02-11T06:40:22.829Z,1.35
2019-02-11T06:42:51.437Z,1.45
2019-02-11T06:45:20.126Z,1.98
2019-02-11T06:47:48.811Z,1.90
2019-02-11T06:50:17.762Z,2.50
2019-02-11T06:52:46.658Z,1.95
2019-02-11T06:55:15.523Z,1.60
2019-02-11T06:57:44.106Z,1.67
2019-02-11T07:00:14.435Z,2.22
2019-02-11T07:02:43.320Z,1.98
2019-02-11T07:05:12.212Z,2.08
2019-02-11T07:07:41.014Z,1.80
2019-02-11T07:10:10.238Z,1.92
2019-02-11T07:12:39.095Z,1.67
2019-02-11T07:15:09.482Z,1.80
2019-02-11T07:17:38.659Z,1.37
2019-02-11T07:20:07.731Z,1.67
2019-02-11T07:22:36.326Z,1.62
2019-02-11T07:25:04.911Z,1.50
2019-02-11T07:27:33.454Z,1.82
2019-02-11T07:30:02.058Z,1.90
2019-02-11T07:32:30.619Z,2.08
2019-02-11T07:34:59.547Z,1.70
2019-02-11T07:37:28.099Z,1.87
2019-02-11T07:39:57.074Z,1.98
2019-02-11T07:42:50.716Z,1.40
2019-02-11T07:45:30.135Z,1.72
2019-02-11T07:47:57.122Z,1.55
2019-02-11T07:50:26.384Z,1.45
2019-02-11T07:52:54.934Z,1.90
2019-02-11T07:55:23.914Z,1.80
2019-02-11T07:57:53.030Z,1.80
2019-02-11T08:00:22.591Z,1.57
2019-02-11T08:02:51.843Z,2.12
2019-02-11T08:05:21.367Z,1.40
2019-02-11T08:07:50.154Z,1.65
2019-02-11T08:10:18.675Z,1.95
2019-02-11T08:12:47.615Z,1.12
2019-02-11T08:15:16.642Z,1.40
2019-02-11T08:17:46.904Z,1.15
2019-02-11T08:20:15.868Z,1.00
2019-02-11T08:22:44.727Z,1.70
2019-02-11T08:25:13.290Z,1.57
2019-02-11T08:27:42.508Z,1.65
2019-02-11T08:30:11.400Z,1.22
2019-02-11T08:32:39.959Z,1.87
2019-02-11T08:35:08.585Z,1.65
2019-02-11T08:37:37.153Z,1.40
2019-02-11T08:40:05.887Z,1.25
2019-02-11T08:42:34.832Z,1.70
2019-02-11T08:45:03.546Z,1.50
2019-02-11T08:47:32.078Z,1.30
2019-02-11T08:50:01.293Z,1.40
2019-02-11T08:52:29.965Z,1.25
2019-02-11T08:54:58.838Z,1.40
2019-02-11T08:57:28.768Z,1.40
2019-02-11T08:59:57.338Z,1.70
2019-02-11T09:02:26.214Z,1.72
2019-02-11T09:04:54.888Z,1.32
2019-02-11T09:07:23.525Z,1.62
2019-02-11T09:09:52.061Z,1.67
2019-02-11T09:12:21.131Z,1.05
2019-02-11T09:14:50.635Z,1.57
2019-02-11T09:17:19.205Z,1.47
2019-02-11T09:19:47.758Z,1.00
2019-02-11T09:22:16.353Z,1.62
2019-02-11T09:24:45.158Z,1.85
2019-02-11T09:27:13.786Z,1.10
2019-02-11T09:29:42.746Z,1.72
2019-02-11T09:32:11.324Z,1.27
2019-02-11T09:34:39.920Z,1.42
2019-02-11T09:37:09.816Z,1.12
2019-02-11T09:39:38.566Z,1.55
2019-02-11T09:42:07.494Z,1.75
2019-02-11T09:44:36.050Z,1.22
2019-02-11T09:47:04.640Z,2.10
2019-02-11T09:49:33.218Z,1.77
2019-02-11T09:52:02.242Z,1.90
2019-02-11T09:54:31.342Z,1.10
2019-02-11T09:57:00.442Z,1.77
2019-02-11T09:59:29.226Z,3.02
2019-02-11T10:01:57.794Z,2.05
2019-02-11T10:04:26.359Z,1.52
2019-02-11T10:06:55.283Z,1.35
2019-02-11T10:09:24.294Z,1.30
2019-02-11T10:11:52.838Z,1.40
2019-02-11T10:14:21.436Z,1.20
2019-02-11T10:16:50.342Z,1.30
2019-02-11T10:19:19.537Z,1.60
2019-02-11T10:21:48.095Z,1.05
2019-02-11T10:24:16.840Z,1.72
2019-02-11T10:26:47.153Z,2.10
2019-02-11T10:29:16.019Z,1.25
2019-02-11T10:31:44.586Z,1.40
2019-02-11T10:34:13.194Z,1.50
2019-02-11T10:36:42.076Z,1.67
2019-02-11T10:39:10.644Z,1.10
2019-02-11T10:41:39.259Z,1.82
2019-02-11T10:44:07.806Z,1.40
2019-02-11T10:46:36.390Z,1.30
2019-02-11T10:49:05.295Z,1.30
2019-02-11T10:51:33.859Z,1.17
2019-02-11T10:54:02.458Z,1.42
2019-02-11T10:56:31.030Z,1.45
2019-02-11T10:58:59.941Z,1.07
2019-02-11T11:01:28.543Z,1.37
2019-02-11T11:03:57.423Z,1.70
2019-02-11T11:06:26.260Z,1.75
2019-02-11T11:08:55.246Z,1.57
2019-02-11T11:11:23.771Z,0.95
2019-02-11T11:13:52.412Z,0.80
2019-02-11T11:16:29.205Z,1.40
2019-02-11T11:18:51.710Z,1.00
2019-02-11T11:21:20.622Z,0.95
2019-02-11T11:23:49.823Z,1.20
2019-02-11T11:26:19.186Z,1.00
2019-02-11T11:28:48.070Z,1.62
2019-02-11T11:31:16.864Z,1.72
2019-02-11T11:33:45.783Z,2.05
2019-02-11T11:36:14.430Z,1.60
2019-02-11T11:38:43.003Z,6.20
2019-02-11T11:41:11.574Z,1.30
2019-02-11T11:43:40.174Z,1.42
2019-02-11T11:46:08.794Z,1.37
2019-02-11T11:48:37.406Z,1.17
2019-02-11T11:51:06.014Z,1.07
2019-02-11T11:53:34.606Z,1.20
2019-02-11T11:56:03.194Z,1.07
2019-02-11T11:58:31.825Z,1.35
2019-02-11T12:01:00.726Z,1.87
2019-02-11T12:03:29.699Z,1.50
2019-02-11T12:05:58.236Z,1.20
2019-02-11T12:08:26.828Z,1.10
2019-02-11T12:10:55.421Z,1.22
2019-02-11T12:13:24.315Z,1.10
2019-02-11T12:15:53.528Z,1.62
2019-02-11T12:18:22.154Z,0.95
2019-02-11T12:20:50.781Z,1.52
2019-02-11T12:23:19.906Z,2.65
2019-02-11T12:25:48.891Z,0.95
2019-02-11T12:28:17.766Z,1.10
2019-02-11T12:30:46.723Z,2.87
2019-02-11T12:33:16.192Z,1.30
2019-02-11T12:35:45.162Z,1.22
2019-02-11T12:38:13.968Z,1.07
2019-02-11T12:40:42.694Z,1.27
2019-02-11T12:43:11.379Z,1.45
2019-02-11T12:45:40.333Z,1.20
2019-02-11T12:48:09.203Z,1.62
2019-02-11T12:50:38.137Z,1.60
2019-02-11T12:53:07.015Z,1.85
2019-02-11T12:55:35.730Z,1.00
2019-02-11T12:58:04.350Z,0.90
2019-02-11T13:00:32.880Z,1.20
2019-02-11T13:03:01.445Z,0.60
2019-02-11T13:05:44.307Z,1.05
2019-02-11T13:08:00.631Z,1.07
2019-02-11T13:10:29.981Z,0.90
2019-02-11T13:12:58.710Z,1.30
2019-02-11T13:15:56.810Z,1.20
2019-02-11T13:17:57.888Z,1.05
2019-02-11T13:20:26.647Z,0.98
2019-02-11T13:22:55.439Z,1.00
2019-02-11T13:25:24.006Z,0.90
2019-02-11T13:27:52.889Z,1.00
2019-02-11T13:30:21.813Z,0.88
2019-02-11T13:32:50.371Z,0.70
2019-02-11T13:35:19.266Z,1.20
2019-02-11T13:37:47.842Z,1.20
2019-02-11T13:40:16.511Z,1.17
2019-02-11T13:42:45.115Z,1.00
2019-02-11T13:45:15.523Z,1.50
2019-02-11T13:47:54.006Z,1.62
2019-02-11T13:50:22.883Z,1.10
2019-02-11T13:52:52.427Z,0.82
2019-02-11T13:55:21.696Z,0.93
2019-02-11T13:57:50.641Z,1.45
2019-02-11T14:00:24.726Z,0.60
2019-02-11T14:02:54.623Z,1.10
2019-02-11T14:05:23.281Z,0.80
2019-02-11T14:07:51.833Z,1.00
2019-02-11T14:10:20.750Z,0.80
2019-02-11T14:12:49.957Z,0.75
2019-02-11T14:15:20.942Z,0.57
2019-02-11T14:17:49.187Z,0.90
2019-02-11T14:20:19.957Z,1.35
2019-02-11T14:22:48.579Z,1.60
2019-02-11T14:25:18.003Z,0.98
2019-02-11T14:27:46.883Z,1.02
2019-02-11T14:30:16.306Z,0.82
2019-02-11T14:32:44.943Z,1.00
2019-02-11T14:35:13.687Z,1.05
2019-02-11T14:37:42.648Z,1.07
2019-02-11T14:40:11.525Z,0.88
2019-02-11T14:42:40.116Z,1.15
2019-02-11T14:45:09.749Z,0.85
2019-02-11T14:47:38.401Z,1.22
2019-02-11T14:50:07.115Z,0.90
2019-02-11T14:52:35.681Z,0.80
2019-02-11T14:55:04.257Z,0.80
2019-02-11T14:57:32.831Z,1.27
2019-02-11T15:00:03.705Z,0.60
2019-02-11T15:02:32.495Z,0.72
2019-02-11T15:05:01.365Z,0.85
2019-02-11T15:07:29.930Z,0.80
2019-02-11T15:09:58.819Z,1.07
2019-02-11T15:12:27.739Z,0.95
2019-02-11T15:14:56.291Z,0.70
2019-02-11T15:17:25.207Z,0.80
2019-02-11T15:19:54.050Z,0.90
2019-02-11T15:22:22.990Z,1.20
2019-02-11T15:24:51.874Z,1.25
2019-02-11T15:27:20.448Z,1.05
2019-02-11T15:29:49.254Z,0.93
2019-02-11T15:32:17.826Z,0.80
2019-02-11T15:34:46.394Z,0.98
2019-02-11T15:37:15.310Z,1.32
2019-02-11T15:39:44.602Z,1.30
2019-02-11T15:42:13.222Z,0.98
2019-02-11T15:44:42.178Z,1.05
2019-02-11T15:47:11.081Z,1.00
2019-02-11T15:49:39.962Z,1.10
2019-02-11T15:52:08.527Z,1.12
2019-02-11T15:54:37.167Z,1.00
2019-02-11T15:57:06.039Z,1.60
2019-02-11T15:59:34.608Z,0.93
2019-02-11T16:02:03.210Z,1.20
2019-02-11T16:04:32.042Z,1.32
2019-02-11T16:07:00.643Z,1.15
2019-02-11T16:09:29.274Z,1.30
2019-02-11T16:11:58.166Z,1.37
2019-02-11T16:14:26.723Z,1.55
2019-02-11T16:16:55.348Z,1.80
2019-02-11T16:19:24.315Z,1.25
2019-02-11T16:21:52.874Z,1.50
2019-02-11T16:24:21.462Z,1.65
2019-02-11T16:26:50.466Z,1.27
2019-02-11T16:29:19.330Z,1.45
2019-02-11T16:31:48.563Z,1.67
2019-02-11T16:34:17.510Z,1.35
2019-02-11T16:36:46.354Z,1.72
2019-02-11T16:39:14.915Z,1.40
2019-02-11T16:41:43.782Z,1.60
2019-02-11T16:44:12.991Z,1.60
2019-02-11T16:46:42.518Z,1.80
2019-02-11T16:49:11.087Z,1.65
2019-02-11T16:51:39.990Z,1.80
2019-02-11T16:54:08.563Z,1.85
2019-02-11T16:56:37.714Z,2.08
2019-02-11T16:59:06.670Z,2.22
2019-02-11T17:01:35.191Z,2.33
2019-02-11T17:04:03.831Z,1.90
2019-02-11T17:06:32.446Z,2.05
2019-02-11T17:09:01.438Z,2.55
2019-02-11T17:11:30.311Z,2.33
2019-02-11T17:13:59.507Z,2.33
2019-02-11T17:16:28.295Z,2.35
2019-02-11T17:18:56.854Z,2.50
2019-02-11T17:21:25.438Z,2.37
2019-02-11T17:23:54.318Z,2.15
2019-02-11T17:26:23.550Z,2.62
2019-02-11T17:28:52.107Z,2.95
2019-02-11T17:31:20.720Z,2.52
2019-02-11T17:33:49.310Z,2.62
2019-02-11T17:36:18.214Z,3.08
2019-02-11T17:38:46.790Z,3.52
2019-02-11T17:41:15.339Z,3.40
2019-02-11T17:43:44.250Z,3.17
2019-02-11T17:46:12.814Z,3.02
2019-02-11T17:48:41.706Z,2.62
2019-02-11T17:51:10.530Z,2.72
2019-02-11T17:53:39.401Z,2.67
2019-02-11T17:56:07.982Z,2.27
2019-02-11T17:58:36.563Z,3.17
2019-02-11T18:01:05.212Z,2.65
2019-02-11T18:03:33.742Z,2.65
2019-02-11T18:06:03.147Z,2.90
2019-02-11T18:08:31.742Z,2.42
2019-02-11T18:11:00.628Z,2.87
2019-02-11T18:13:29.570Z,2.80
2019-02-11T18:15:58.534Z,3.58
2019-02-11T18:18:27.798Z,3.15
2019-02-11T18:20:56.620Z,2.50
2019-02-11T18:23:25.250Z,2.72
2019-02-11T18:25:54.466Z,2.80
2019-02-11T18:28:23.082Z,2.70
2019-02-11T18:30:52.062Z,3.05
2019-02-11T18:33:20.622Z,3.50
2019-02-11T18:35:49.201Z,3.30
2019-02-11T18:38:18.101Z,3.58
2019-02-11T18:40:46.675Z,3.20
2019-02-11T18:43:15.263Z,2.87
2019-02-11T18:45:44.079Z,3.72
2019-02-11T18:48:12.966Z,3.10
2019-02-11T18:50:41.820Z,3.30
2019-02-11T18:53:11.054Z,3.65
2019-02-11T18:55:39.607Z,3.00
2019-02-11T18:58:08.604Z,3.40
2019-02-11T19:00:56.438Z,3.30
2019-02-11T19:03:37.084Z,3.33
2019-02-11T19:06:17.724Z,3.30
2019-02-11T19:08:58.503Z,3.62
2019-02-11T19:11:39.579Z,3.40
2019-02-11T19:14:19.807Z,3.65
2019-02-11T19:17:00.440Z,3.83
2019-02-11T19:19:43.319Z,3.55
2019-02-11T19:22:23.754Z,4.58
2019-02-11T19:25:04.303Z,4.00
2019-02-11T19:27:44.765Z,3.90
2019-02-11T19:30:25.333Z,3.98
2019-02-11T19:33:06.243Z,3.25
2019-02-11T19:35:47.690Z,4.17
2019-02-11T19:38:28.307Z,3.47
2019-02-11T19:41:09.666Z,4.10
2019-02-11T19:43:50.448Z,3.30
2019-02-11T19:46:29.422Z,3.50
2019-02-11T19:49:17.986Z,3.55
2019-02-11T19:52:05.814Z,4.00
2019-02-11T19:54:53.663Z,3.72
2019-02-11T19:57:41.966Z,4.78
2019-02-11T20:00:31.756Z,5.53
2019-02-11T20:03:11.858Z,4.12
2019-02-11T20:05:52.475Z,3.30
2019-02-11T20:08:32.887Z,4.92
2019-02-11T20:11:13.782Z,4.42
2019-02-11T20:13:54.949Z,4.15
2019-02-11T20:16:35.354Z,4.20
2019-02-11T20:19:16.239Z,3.52
2019-02-11T20:21:57.715Z,4.05
2019-02-11T20:24:38.011Z,4.08
2019-02-11T20:27:18.947Z,3.92
2019-02-11T20:29:59.603Z,3.05
2019-02-11T20:32:38.542Z,3.10
2019-02-11T20:35:26.661Z,3.85
2019-02-11T20:41:21.491Z,4.20
2019-02-11T20:44:09.559Z,5.10
2019-02-11T20:46:57.646Z,4.55
2019-02-11T20:52:39.338Z,4.00
2019-02-11T20:55:27.455Z,4.42
2019-02-11T20:58:15.546Z,5.00
2019-02-11T21:01:03.403Z,3.87
2019-02-11T21:03:44.463Z,5.53
2019-02-11T21:06:25.626Z,4.08
2019-02-11T21:09:06.170Z,3.72
2019-02-11T21:11:46.945Z,3.40
2019-02-11T21:14:27.291Z,3.67
2019-02-11T21:17:07.914Z,6.35
2019-02-11T21:19:48.630Z,3.60
2019-02-11T21:22:29.587Z,2.98
2019-02-11T21:27:58.097Z,3.37
2019-02-11T21:33:25.565Z,2.92
2019-02-11T21:38:56.291Z,2.75
2019-02-11T21:44:24.819Z,2.50
2019-02-11T22:09:10.739Z,3.22
2019-02-11T22:14:34.004Z,4.00
2019-02-11T22:22:48.731Z,3.58
2019-02-11T22:28:22.359Z,3.30
2019-02-11T22:31:03.034Z,2.77
2019-02-11T22:33:43.452Z,3.15
2019-02-11T22:36:24.069Z,3.10
2019-02-11T22:39:04.815Z,3.15
2019-02-11T22:41:45.491Z,3.27
2019-02-11T22:44:25.766Z,3.17
2019-02-11T22:47:06.311Z,3.08
2019-02-11T22:49:47.698Z,3.00
2019-02-11T22:52:28.707Z,2.98
2019-02-11T22:55:09.307Z,3.20
2019-02-11T22:57:50.423Z,2.50
2019-02-11T23:00:50.723Z,2.92
2019-02-11T23:03:31.387Z,2.70
2019-02-11T23:06:12.130Z,2.83
2019-02-11T23:08:52.699Z,2.60
2019-02-11T23:11:33.607Z,2.37
2019-02-11T23:14:14.163Z,2.33
2019-02-11T23:16:54.783Z,2.62
2019-02-11T23:19:35.907Z,2.72
2019-02-11T23:22:17.060Z,2.12
2019-02-11T23:24:57.335Z,2.37
2019-02-11T23:27:38.300Z,2.52
2019-02-11T23:30:19.623Z,2.45
2019-02-11T23:32:59.838Z,3.12
2019-02-11T23:35:40.491Z,2.67
2019-02-11T23:38:21.022Z,3.55
2019-02-11T23:41:01.490Z,3.00
2019-02-11T23:43:42.041Z,3.00
2019-02-11T23:46:22.714Z,3.15
2019-02-11T23:49:03.227Z,2.95
2019-02-11T23:51:43.565Z,2.77
2019-02-11T23:54:24.344Z,2.10
2019-02-11T23:57:04.623Z,2.35
2019-02-11T23:59:45.529Z,2.35
